createdAt,value
2023-07-08T00:00:22.180Z,47.80
2023-07-08T00:10:23.799Z,48.40
2023-07-08T00:20:25.222Z,48.70
2023-07-08T00:30:26.842Z,49.00
2023-07-08T00:40:28.326Z,49.30
2023-07-08T00:50:29.761Z,49.70
2023-07-08T01:00:31.186Z,50.00
2023-07-08T01:10:32.650Z,49.90
2023-07-08T01:20:34.107Z,50.20
2023-07-08T01:30:35.556Z,50.60
2023-07-08T01:40:37.009Z,51.00
2023-07-08T01:50:38.480Z,51.60
2023-07-08T02:00:39.907Z,52.70
2023-07-08T02:10:41.326Z,52.50
2023-07-08T02:20:42.809Z,53.00
2023-07-08T02:30:44.243Z,54.00
2023-07-08T02:40:45.688Z,52.80
2023-07-08T02:50:47.144Z,54.10
2023-07-08T03:00:48.596Z,54.50
2023-07-08T03:10:50.103Z,54.50
2023-07-08T03:20:51.641Z,54.60
2023-07-08T03:30:53.241Z,55.10
2023-07-08T03:40:54.788Z,55.20
2023-07-08T03:50:56.205Z,54.90
2023-07-08T04:00:57.760Z,55.20
2023-07-08T04:10:59.559Z,54.90
2023-07-08T04:31:05.626Z,54.40
2023-07-08T04:41:07.103Z,54.30
2023-07-08T04:51:08.569Z,54.10
2023-07-08T05:01:10.026Z,53.80
2023-07-08T05:11:11.484Z,53.70
2023-07-08T05:21:12.907Z,53.40
2023-07-08T05:31:14.465Z,53.20
2023-07-08T05:41:15.947Z,53.00
2023-07-08T05:51:17.392Z,52.50
2023-07-08T06:01:19.924Z,52.20
2023-07-08T06:11:21.404Z,51.70
2023-07-08T06:21:22.841Z,51.80
2023-07-08T06:31:24.325Z,51.70
2023-07-08T06:41:25.782Z,52.10
2023-07-08T07:01:29.271Z,50.60
2023-07-08T07:11:30.753Z,51.20
2023-07-08T07:21:32.194Z,51.00
2023-07-08T07:31:33.662Z,51.00
2023-07-08T07:41:35.157Z,51.40
2023-07-08T07:51:36.601Z,51.20
2023-07-08T08:01:38.066Z,51.30
2023-07-08T08:11:39.571Z,51.30
2023-07-08T08:21:41.011Z,51.00
2023-07-08T08:31:42.438Z,50.80
2023-07-08T08:41:43.870Z,50.50
2023-07-08T08:51:45.296Z,48.80
2023-07-08T09:01:46.728Z,49.70
2023-07-08T09:11:48.164Z,49.90
2023-07-08T09:21:49.599Z,50.00
2023-07-08T09:31:51.043Z,49.70
2023-07-08T09:41:52.503Z,49.40
2023-07-08T09:51:53.939Z,49.30
2023-07-08T10:01:55.447Z,49.60
2023-07-08T10:11:56.981Z,49.10
2023-07-08T10:21:58.435Z,49.80
2023-07-08T10:31:59.937Z,49.70
2023-07-08T10:42:01.413Z,48.80
2023-07-08T10:52:02.849Z,49.20
2023-07-08T11:02:04.330Z,49.40
2023-07-08T11:12:05.794Z,49.00
2023-07-08T11:22:07.230Z,47.50
2023-07-08T11:32:08.747Z,45.40
2023-07-08T11:42:10.197Z,47.70
2023-07-08T11:52:11.623Z,46.40
2023-07-08T12:02:13.071Z,47.30
2023-07-08T12:12:14.513Z,48.10
2023-07-08T12:22:15.940Z,48.20
2023-07-08T12:32:17.396Z,46.50
2023-07-08T12:42:18.828Z,47.20
2023-07-08T12:52:20.297Z,47.90
2023-07-08T13:02:21.900Z,47.00
2023-07-08T13:12:23.502Z,47.10
2023-07-08T13:22:25.103Z,47.30
2023-07-08T13:32:26.545Z,46.70
2023-07-08T13:42:27.975Z,46.80
2023-07-08T13:52:29.422Z,45.70
2023-07-08T14:02:30.927Z,46.60
2023-07-08T14:12:32.495Z,45.20
2023-07-08T14:22:33.923Z,45.50
2023-07-08T14:32:35.389Z,45.80
2023-07-08T14:42:36.860Z,46.30
2023-07-08T14:52:38.303Z,44.10
2023-07-08T15:02:39.775Z,45.00
2023-07-08T15:12:41.225Z,43.90
2023-07-08T15:22:42.645Z,44.30
2023-07-08T15:32:44.119Z,42.60
2023-07-08T15:42:45.839Z,42.80
2023-07-08T15:52:47.266Z,42.60
2023-07-08T16:02:48.746Z,40.80
2023-07-08T16:12:50.333Z,41.30
2023-07-08T16:22:51.847Z,42.30
2023-07-08T16:32:53.359Z,41.20
2023-07-08T16:42:54.892Z,41.00
2023-07-08T16:52:56.320Z,41.20
2023-07-08T17:02:57.804Z,41.30
2023-07-08T17:12:59.284Z,39.90
2023-07-08T17:23:00.712Z,39.60
2023-07-08T17:33:02.180Z,39.90
2023-07-08T17:43:03.620Z,39.90
2023-07-08T17:53:05.030Z,39.60
2023-07-08T18:03:06.556Z,38.90
2023-07-08T18:13:08.030Z,39.10
2023-07-08T18:23:10.813Z,39.70
2023-07-08T18:33:12.388Z,40.10
2023-07-08T18:43:13.824Z,40.10
2023-07-08T18:53:15.258Z,40.00
2023-07-08T19:03:16.716Z,40.40
2023-07-08T19:13:18.179Z,40.20
2023-07-08T19:23:19.640Z,40.40
2023-07-08T19:33:21.086Z,40.70
2023-07-08T19:43:22.552Z,40.70
2023-07-08T19:53:24.013Z,40.60
2023-07-08T20:03:25.530Z,40.70
2023-07-08T20:13:27.087Z,41.20
2023-07-08T20:23:28.546Z,41.60
2023-07-08T20:33:29.984Z,41.30
2023-07-08T20:43:31.422Z,43.00
2023-07-08T20:53:32.889Z,43.20
2023-07-08T21:03:34.358Z,43.60
2023-07-08T21:13:35.823Z,44.00
2023-07-08T21:23:40.446Z,44.40
2023-07-08T21:33:41.905Z,44.90
2023-07-08T21:43:43.343Z,45.80
2023-07-08T21:53:44.769Z,47.00
2023-07-08T22:03:46.317Z,47.30
2023-07-08T22:13:48.119Z,47.20
2023-07-08T22:23:49.680Z,47.60
2023-07-08T22:33:51.146Z,46.80
2023-07-08T22:43:52.584Z,46.40
2023-07-08T22:53:54.036Z,47.40
2023-07-08T23:03:55.501Z,46.90
2023-07-08T23:13:56.982Z,47.20
2023-07-08T23:23:58.510Z,47.60
2023-07-08T23:33:59.952Z,47.50
2023-07-08T23:44:01.531Z,47.50
2023-07-08T23:54:02.946Z,47.70
